SLC Intl Airport
, Salt Lake City
Last Weather Update:11/25/2011 8:00:00 AM
Date
ETo
ETc
Rain
Irrigation
Req
Temp
Max
Temp
Min
Temp
Avg
Avg RH
Avg Wind
Avg Solar
inches
inches
incehs
inches
F
F
F
%
%
watts/m2
10/1/2011 0.25" 0.14" 0.00" 0.14" 85.7° 64.8° 74.7° 29.0% 8.7 MPH 209.9w/m2
10/2/2011 0.21" 0.12" 0.00" 0.12" 85.1° 65.4° 73.4° 32.2% 7.5 MPH 193.3w/m2
10/3/2011 0.23" 0.13" 0.00" 0.13" 84.0° 63.4° 72.2° 36.7% 9.2 MPH 211.2w/m2
10/4/2011 0.16" 0.08" 0.07" 0.03" 75.1° 58.9° 65.9° 57.0% 8.1 MPH 208.1w/m2
10/5/2011 0.10" 0.05" 0.52" -0.37" 64.4° 42.7° 57.0° 61.0% 11.7 MPH 62.1w/m2
10/6/2011 0.04" 0.02" 0.71" -0.55" 49.2° 38.2° 42.2° 77.7% 6.6 MPH 47.6w/m2
10/7/2011 0.05" 0.02" 0.01" 0.02" 47.1° 42.0° 44.6° 67.1% 5.5 MPH 45.3w/m2
10/8/2011 0.08" 0.03" 0.08" -0.03" 54.7° 41.2° 46.9° 76.6% 4.3 MPH 149.5w/m2
10/9/2011 0.12" 0.05" 0.00" 0.05" 63.8° 41.0° 50.2° 65.4% 3.6 MPH 219.7w/m2
10/10/2011 0.13" 0.05" 0.02" 0.04" 65.9° 44.5° 53.8° 57.5% 7.5 MPH 168.2w/m2
10/11/2011 0.09" 0.04" 0.00" 0.04" 68.5° 50.1° 57.6° 61.2% 4.4 MPH 136.5w/m2
10/12/2011 0.12" 0.04" 0.00" 0.04" 64.8° 44.6° 54.5° 53.0% 2.4 MPH 200.2w/m2
10/13/2011 0.13" 0.04" 0.00" 0.04" 74.1° 45.0° 57.5° 51.5% 4.3 MPH 194.8w/m2
10/14/2011 0.13" 0.04" 0.00" 0.04" 77.8° 46.2° 61.4° 46.7% 3.4 MPH 201.0w/m2
10/15/2011 0.14" 0.04" 0.00" 0.04" 81.4° 54.5° 65.9° 43.5% 4.3 MPH 182.6w/m2
10/16/2011 0.11" 0.03" 0.05" -0.01" 71.7° 51.1° 61.5° 53.1% 5.3 MPH 125.6w/m2
10/17/2011 0.11" 0.03" 0.03" 0.01" 59.4° 46.6° 53.2° 64.8% 4.5 MPH 204.1w/m2
10/18/2011 0.10" 0.03" 0.00" 0.03" 61.1° 40.5° 50.3° 57.4% 2.9 MPH 203.6w/m2
10/19/2011 0.11" 0.03" 0.00" 0.03" 65.0° 42.4° 52.6° 55.3% 4.0 MPH 198.5w/m2
10/20/2011 0.11" 0.02" 0.00" 0.02" 66.6° 44.1° 54.8° 53.6% 3.1 MPH 190.7w/m2
10/21/2011 0.12" 0.02" 0.00" 0.02" 68.6° 47.6° 57.1° 49.0% 3.7 MPH 185.3w/m2
10/22/2011 0.10" 0.02" 0.00" 0.02" 66.1° 43.8° 54.7° 52.1% 2.7 MPH 181.2w/m2
10/23/2011 0.12" 0.02" 0.00" 0.02" 71.3° 44.2° 56.4° 49.3% 4.4 MPH 187.2w/m2
10/24/2011 0.14" 0.02" 0.00" 0.02" 74.2° 47.8° 59.9° 41.5% 6.6 MPH 162.8w/m2
10/25/2011 0.07" 0.01" 0.00" 0.01" 54.6° 41.9° 47.8° 51.9% 6.6 MPH 78.9w/m2
10/26/2011 0.10" 0.01" 0.00" 0.01" 49.1° 34.1° 41.2° 49.7% 7.0 MPH 192.4w/m2
10/27/2011 0.08" 0.01" 0.00" 0.01" 50.4° 30.7° 39.9° 49.0% 3.3 MPH 183.3w/m2
10/28/2011 0.08" 0.00" 0.00" 0.00" 54.7° 31.4° 42.6° 43.3% 4.0 MPH 160.3w/m2
10/29/2011 0.06" 0.00" 0.00" 0.00" 59.4° 34.0° 45.0° 41.6% 2.4 MPH 115.7w/m2
10/30/2011 0.09" 0.00" 0.00" 0.00" 61.6° 35.4° 48.0° 52.2% 2.7 MPH 176.7w/m2
10/31/2011 0.10" 0.00" 0.00" 0.00" 64.9° 39.9° 51.5° 51.3% 4.4 MPH 172.8w/m2
Totals: 3.60" 1.16" 1.49" -0.03" 85.7° 30.7° 54.7° 52.6% 5.1 MPH 166.1w/m2